Time,TemperatureF,DewpointF,PressureIn,WindDirection,WindDirectionDegrees,WindSpeedMPH,WindSpeedGustMPH,Humidity,HourlyPrecipIn,Conditions,Clouds,dailyrainin,SoftwareType,DateUTC
2014-02-14 00:11:00,23.0,22.5,29.35,West,270,1.1,-999.0,98,-99.99,,,0.00,Acu-Link.com,2014-02-14 05:11:00,
2014-02-14 00:26:00,23.0,22.5,29.34,ENE,67,0.0,-999.0,98,-99.99,,,0.00,Acu-Link.com,2014-02-14 05:26:00,
2014-02-14 00:41:00,23.0,22.5,29.33,NW,315,2.7,-999.0,98,-99.99,,,0.00,Acu-Link.com,2014-02-14 05:41:00,
2014-02-14 00:56:00,23.0,22.5,29.34,WSW,247,3.2,-999.0,98,-99.99,,,0.00,Acu-Link.com,2014-02-14 05:56:00,
2014-02-14 01:11:00,23.0,22.5,29.33,NW,315,1.1,-999.0,98,-99.99,,,0.00,Acu-Link.com,2014-02-14 06:11:00,
2014-02-14 01:26:00,23.0,22.5,29.32,West,270,0.0,-999.0,98,-99.99,,,0.00,Acu-Link.com,2014-02-14 06:26:00,
2014-02-14 01:42:00,23.2,22.7,29.31,NNE,22,0.0,-999.0,98,-99.99,,,0.00,Acu-Link.com,2014-02-14 06:42:00,
2014-02-14 01:57:00,23.2,22.7,29.31,WSW,247,0.0,-999.0,98,-99.99,,,0.00,Acu-Link.com,2014-02-14 06:57:00,
2014-02-14 02:12:00,23.2,22.7,29.30,NW,315,0.0,-999.0,98,-99.99,,,0.00,Acu-Link.com,2014-02-14 07:12:00,
2014-02-14 02:28:00,23.2,22.7,29.31,SW,225,0.0,-999.0,98,-99.99,,,0.00,Acu-Link.com,2014-02-14 07:28:00,
2014-02-14 02:43:00,23.0,22.5,29.30,West,270,2.7,-999.0,98,-99.99,,,0.00,Acu-Link.com,2014-02-14 07:43:00,
2014-02-14 02:58:00,23.0,22.5,29.30,WSW,247,2.7,-999.0,98,-99.99,,,0.00,Acu-Link.com,2014-02-14 07:58:00,
2014-02-14 03:14:00,23.2,22.7,29.29,SW,225,0.0,-999.0,98,-99.99,,,0.00,Acu-Link.com,2014-02-14 08:14:00,
2014-02-14 03:29:00,23.2,22.7,29.28,West,270,1.7,-999.0,98,-99.99,,,0.00,Acu-Link.com,2014-02-14 08:29:00,
2014-02-14 03:44:00,23.2,22.7,29.29,WSW,247,3.2,-999.0,98,-99.99,,,0.00,Acu-Link.com,2014-02-14 08:44:00,
2014-02-14 03:59:00,22.6,22.1,29.28,SW,225,2.2,-999.0,98,-99.99,,,0.00,Acu-Link.com,2014-02-14 08:59:00,
2014-02-14 04:15:00,22.5,22.0,29.28,SSW,202,2.2,-999.0,98,-99.99,,,0.00,Acu-Link.com,2014-02-14 09:15:00,
2014-02-14 04:30:00,22.3,21.8,29.27,SSW,202,2.2,-999.0,98,-99.99,,,0.00,Acu-Link.com,2014-02-14 09:30:00,
2014-02-14 04:45:00,22.1,21.6,29.28,SSW,202,3.7,-999.0,98,-99.99,,,0.00,Acu-Link.com,2014-02-14 09:45:00,
2014-02-14 05:00:00,21.9,21.4,29.27,SSW,202,2.7,-999.0,98,-99.99,,,0.00,Acu-Link.com,2014-02-14 10:00:00,
2014-02-14 05:15:00,21.9,21.4,29.27,SSW,202,4.7,-999.0,98,-99.99,,,0.00,Acu-Link.com,2014-02-14 10:15:00,
2014-02-14 05:30:00,21.7,21.2,29.26,SSW,202,2.2,-999.0,98,-99.99,,,0.00,Acu-Link.com,2014-02-14 10:30:00,
2014-02-14 05:46:00,21.6,21.1,29.26,SW,225,2.2,-999.0,98,-99.99,,,0.00,Acu-Link.com,2014-02-14 10:46:00,
2014-02-14 06:01:00,21.6,21.1,29.26,South,180,2.7,-999.0,98,-99.99,,,0.00,Acu-Link.com,2014-02-14 11:01:00,
2014-02-14 06:16:00,21.6,21.1,29.27,West,270,2.7,-999.0,98,-99.99,,,0.00,Acu-Link.com,2014-02-14 11:16:00,
2014-02-14 06:32:00,21.6,21.1,29.27,WSW,247,4.2,-999.0,98,-99.99,,,0.00,Acu-Link.com,2014-02-14 11:32:00,
2014-02-14 06:47:00,21.6,21.1,29.27,SW,225,2.7,-999.0,98,-99.99,,,0.00,Acu-Link.com,2014-02-14 11:47:00,
2014-02-14 07:02:00,21.4,20.9,29.27,WSW,247,2.2,-999.0,98,-99.99,,,0.00,Acu-Link.com,2014-02-14 12:02:00,
2014-02-14 07:17:00,21.4,20.9,29.27,SSW,202,2.7,-999.0,98,-99.99,,,0.00,Acu-Link.com,2014-02-14 12:17:00,
2014-02-14 07:33:00,21.4,20.9,29.27,SW,225,4.7,-999.0,98,-99.99,,,0.00,Acu-Link.com,2014-02-14 12:33:00,
2014-02-14 07:48:00,21.6,21.1,29.27,SSW,202,2.2,-999.0,98,-99.99,,,0.00,Acu-Link.com,2014-02-14 12:48:00,
2014-02-14 08:03:00,21.9,21.4,29.28,WSW,247,3.7,-999.0,98,-99.99,,,0.00,Acu-Link.com,2014-02-14 13:03:00,
2014-02-14 08:18:00,22.5,22.0,29.28,West,270,3.2,-999.0,98,-99.99,,,0.00,Acu-Link.com,2014-02-14 13:18:00,
2014-02-14 08:33:00,22.8,22.3,29.29,SW,225,2.7,-999.0,98,-99.99,,,0.00,Acu-Link.com,2014-02-14 13:33:00,
2014-02-14 08:48:00,23.4,22.9,29.29,SSW,202,2.7,-999.0,98,-99.99,,,0.00,Acu-Link.com,2014-02-14 13:48:00,
2014-02-14 09:04:00,23.5,23.0,29.29,SW,225,3.7,-999.0,98,-99.99,,,0.00,Acu-Link.com,2014-02-14 14:04:00,
2014-02-14 09:19:00,24.3,23.8,29.29,SW,225,2.7,-999.0,98,-99.99,,,0.00,Acu-Link.com,2014-02-14 14:19:00,
2014-02-14 09:34:00,23.7,23.2,29.30,SSW,202,5.8,-999.0,98,-99.99,,,0.00,Acu-Link.com,2014-02-14 14:34:00,
2014-02-14 09:50:00,24.3,23.8,29.31,WSW,247,4.2,-999.0,98,-99.99,,,0.00,Acu-Link.com,2014-02-14 14:50:00,
2014-02-14 10:05:00,24.6,24.1,29.31,NNE,22,4.2,-999.0,98,-99.99,,,0.00,Acu-Link.com,2014-02-14 15:05:00,
2014-02-14 10:20:00,24.3,23.8,29.31,SW,225,4.2,-999.0,98,-99.99,,,0.00,Acu-Link.com,2014-02-14 15:20:00,
2014-02-14 10:35:00,24.6,24.1,29.32,SW,225,6.3,-999.0,98,-99.99,,,0.00,Acu-Link.com,2014-02-14 15:35:00,
2014-02-14 10:50:00,24.8,24.3,29.32,SSW,202,6.8,-999.0,98,-99.99,,,0.00,Acu-Link.com,2014-02-14 15:50:00,
2014-02-14 11:06:00,25.3,24.8,29.32,WSW,247,5.3,-999.0,98,-99.99,,,0.00,Acu-Link.com,2014-02-14 16:06:00,
2014-02-14 11:21:00,26.1,25.6,29.32,WSW,247,6.8,-999.0,98,-99.99,,,0.00,Acu-Link.com,2014-02-14 16:21:00,
2014-02-14 11:36:00,26.2,25.7,29.33,SW,225,7.8,-999.0,98,-99.99,,,0.00,Acu-Link.com,2014-02-14 16:36:00,
2014-02-14 11:51:00,25.7,25.2,29.34,SSW,202,6.8,-999.0,98,-99.99,,,0.00,Acu-Link.com,2014-02-14 16:51:00,
2014-02-14 12:06:00,25.5,25.0,29.34,WSW,247,8.3,-999.0,98,-99.99,,,0.00,Acu-Link.com,2014-02-14 17:06:00,
2014-02-14 12:21:00,25.2,24.7,29.35,SW,225,6.8,-999.0,98,-99.99,,,0.00,Acu-Link.com,2014-02-14 17:21:00,
2014-02-14 12:37:00,25.5,25.0,29.36,South,180,7.8,-999.0,98,-99.99,,,0.00,Acu-Link.com,2014-02-14 17:37:00,
2014-02-14 12:52:00,25.7,25.2,29.36,West,270,8.9,-999.0,98,-99.99,,,0.00,Acu-Link.com,2014-02-14 17:52:00,
2014-02-14 13:07:00,25.7,25.2,29.37,NW,315,10.9,-999.0,98,-99.99,,,0.00,Acu-Link.com,2014-02-14 18:07:00,
2014-02-14 13:22:00,25.3,24.8,29.37,SW,225,6.3,-999.0,98,-99.99,,,0.00,Acu-Link.com,2014-02-14 18:22:00,
2014-02-14 13:37:00,24.8,24.3,29.38,WSW,247,9.4,-999.0,98,-99.99,,,0.00,Acu-Link.com,2014-02-14 18:37:00,
2014-02-14 13:52:00,24.8,24.3,29.39,SW,225,9.4,-999.0,98,-99.99,,,0.00,Acu-Link.com,2014-02-14 18:52:00,
2014-02-14 14:07:00,25.2,24.7,29.39,SW,225,6.8,-999.0,98,-99.99,,,0.00,Acu-Link.com,2014-02-14 19:07:00,
2014-02-14 14:22:00,25.9,25.4,29.39,WSW,247,8.3,-999.0,98,-99.99,,,0.00,Acu-Link.com,2014-02-14 19:22:00,
2014-02-14 14:38:00,25.3,24.8,29.40,SW,225,9.4,-999.0,98,-99.99,,,0.00,Acu-Link.com,2014-02-14 19:38:00,
2014-02-14 14:53:00,25.0,24.5,29.40,WSW,247,7.8,-999.0,98,-99.99,,,0.00,Acu-Link.com,2014-02-14 19:53:00,
2014-02-14 15:08:00,25.5,25.0,29.41,SW,225,6.8,-999.0,98,-99.99,,,0.00,Acu-Link.com,2014-02-14 20:08:00,
2014-02-14 15:23:00,25.7,25.2,29.42,WSW,247,9.4,-999.0,98,-99.99,,,0.00,Acu-Link.com,2014-02-14 20:23:00,
2014-02-14 15:39:00,26.2,25.7,29.42,SW,225,5.3,-999.0,98,-99.99,,,0.00,Acu-Link.com,2014-02-14 20:39:00,
2014-02-14 15:54:00,26.4,25.9,29.43,WSW,247,10.4,-999.0,98,-99.99,,,0.00,Acu-Link.com,2014-02-14 20:54:00,
2014-02-14 16:09:00,26.4,25.9,29.43,SW,225,10.9,-999.0,98,-99.99,,,0.00,Acu-Link.com,2014-02-14 21:09:00,
2014-02-14 16:24:00,26.6,26.1,29.43,SW,225,12.5,-999.0,98,-99.99,,,0.00,Acu-Link.com,2014-02-14 21:24:00,
2014-02-14 16:39:00,26.6,26.1,29.44,SW,225,8.3,-999.0,98,-99.99,,,0.00,Acu-Link.com,2014-02-14 21:39:00,
2014-02-14 16:54:00,26.6,26.1,29.44,WSW,247,8.9,-999.0,98,-99.99,,,0.00,Acu-Link.com,2014-02-14 21:54:00,
2014-02-14 17:09:00,26.2,25.7,29.45,WSW,247,2.7,-999.0,98,-99.99,,,0.00,Acu-Link.com,2014-02-14 22:09:00,
2014-02-14 17:24:00,26.1,25.6,29.46,SSE,157,6.8,-999.0,98,-99.99,,,0.00,Acu-Link.com,2014-02-14 22:24:00,
2014-02-14 17:40:00,26.8,26.3,29.47,SW,225,7.3,-999.0,98,-99.99,,,0.00,Acu-Link.com,2014-02-14 22:40:00,
2014-02-14 17:55:00,26.6,26.1,29.49,West,270,5.3,-999.0,98,-99.99,,,0.00,Acu-Link.com,2014-02-14 22:55:00,
2014-02-14 18:10:00,26.4,25.9,29.49,West,270,8.3,-999.0,98,-99.99,,,0.00,Acu-Link.com,2014-02-14 23:10:00,
2014-02-14 18:25:00,26.4,25.9,29.50,West,270,7.8,-999.0,98,-99.99,,,0.00,Acu-Link.com,2014-02-14 23:25:00,
2014-02-14 18:40:00,26.2,25.7,29.51,West,270,5.3,-999.0,98,-99.99,,,0.00,Acu-Link.com,2014-02-14 23:40:00,
2014-02-14 18:56:00,26.1,25.6,29.50,SW,225,7.3,-999.0,98,-99.99,,,0.00,Acu-Link.com,2014-02-14 23:56:00,
2014-02-14 19:11:00,26.2,25.7,29.51,SW,225,4.2,-999.0,98,-99.99,,,0.00,Acu-Link.com,2014-02-15 00:11:00,
2014-02-14 19:26:00,26.1,25.6,29.51,SSW,202,9.4,-999.0,98,-99.99,,,0.00,Acu-Link.com,2014-02-15 00:26:00,
2014-02-14 19:41:00,25.9,25.4,29.52,SW,225,6.8,-999.0,98,-99.99,,,0.00,Acu-Link.com,2014-02-15 00:41:00,
2014-02-14 19:56:00,25.9,25.4,29.52,NNW,337,6.3,-999.0,98,-99.99,,,0.00,Acu-Link.com,2014-02-15 00:56:00,
2014-02-14 20:12:00,25.9,25.4,29.52,South,180,5.3,-999.0,98,-99.99,,,0.00,Acu-Link.com,2014-02-15 01:12:00,
2014-02-14 20:27:00,25.7,25.2,29.52,West,270,5.8,-999.0,98,-99.99,,,0.00,Acu-Link.com,2014-02-15 01:27:00,
2014-02-14 20:42:00,25.5,25.0,29.52,SSW,202,4.7,-999.0,98,-99.99,,,0.00,Acu-Link.com,2014-02-15 01:42:00,
2014-02-14 20:57:00,25.5,25.0,29.52,SW,225,3.7,-999.0,98,-99.99,,,0.00,Acu-Link.com,2014-02-15 01:57:00,
2014-02-14 21:12:00,25.3,24.8,29.53,WSW,247,5.8,-999.0,98,-99.99,,,0.00,Acu-Link.com,2014-02-15 02:12:00,
2014-02-14 21:27:00,26.4,25.9,29.53,SW,225,4.2,-999.0,98,-99.99,,,0.00,Acu-Link.com,2014-02-15 02:27:00,
2014-02-14 21:43:00,25.2,24.7,29.53,West,270,4.7,-999.0,98,-99.99,,,0.00,Acu-Link.com,2014-02-15 02:43:00,
2014-02-14 21:58:00,25.0,24.5,29.54,SSW,202,4.7,-999.0,98,-99.99,,,0.00,Acu-Link.com,2014-02-15 02:58:00,
2014-02-14 22:13:00,25.0,24.5,29.54,SW,225,5.3,-999.0,98,-99.99,,,0.00,Acu-Link.com,2014-02-15 03:13:00,
2014-02-14 22:28:00,25.0,24.5,29.54,SW,225,4.7,-999.0,98,-99.99,,,0.00,Acu-Link.com,2014-02-15 03:28:00,
2014-02-14 22:43:00,24.8,24.3,29.54,WSW,247,4.7,-999.0,98,-99.99,,,0.00,Acu-Link.com,2014-02-15 03:43:00,
2014-02-14 22:59:00,24.6,24.1,29.54,SSW,202,5.8,-999.0,98,-99.99,,,0.00,Acu-Link.com,2014-02-15 03:59:00,
2014-02-14 23:14:00,24.6,24.1,29.55,SSW,202,7.8,-999.0,98,-99.99,,,0.00,Acu-Link.com,2014-02-15 04:14:00,
2014-02-14 23:29:00,24.4,23.9,29.55,SW,225,3.7,-999.0,98,-99.99,,,0.00,Acu-Link.com,2014-02-15 04:29:00,
2014-02-14 23:44:00,24.3,23.8,29.55,WSW,247,5.8,-999.0,98,-99.99,,,0.00,Acu-Link.com,2014-02-15 04:44:00,
2014-02-14 23:59:00,24.3,23.8,29.55,SW,225,3.2,-999.0,98,-99.99,,,0.00,Acu-Link.com,2014-02-15 04:59:00,